• Join FlightAware (Why Join?)
  • Login
  • US Flag 
09:45AM EDT


 

Airport Tracker/Info


-or-


 

Live Flight TrackerFlight Track Log ✈ TCF3494 ✈ 23-Apr-2013 ✈ KLGA - KORD

Flight Track Log - Related Links

Times and Time Zones

All times are in EDT time to prevent confusion due to time zone crossing. See the TCF3494 flight status page for this flight to view local times or setup timezone preferences in your user account.

Time Position Orientation Groundspeed Altitude Reporting Facility
EDT Latitude Longitude Course Direction KTS MPH feet Rate Location/Type
07:52PM 40.7333 -73.8333 299° West 178 205 2,300  Level New York TRACON
07:53PM 40.7667 -73.7833 49° Northeast 204 235 4,400 2,700 Climbing New York TRACON
07:54PM 40.8333 -73.7667 11° North 257 296 7,700 3,420 Climbing New York TRACON
07:55PM 40.9340 -74.2345 304° West  Level FlightAware Approximate
07:55PM 40.8667 -73.8333 303° West 278 320 10,900  Level New York TRACON
07:56PM 40.9818 -74.3303 304° West  Level FlightAware Approximate
07:57PM 41.0240 -74.4307 299° West  Level FlightAware Approximate
07:57PM 40.9492 -73.9800 307° West 316 364 14,800  Level New York Center
07:58PM 41.0659 -74.5314 299° West  Level FlightAware Approximate
07:58PM 41.0050 -74.0789 307° West 316 364 15,000  Level New York Center
07:59PM 41.0544 -74.1692 306° West 316 364 15,000  Level New York Center
08:00PM 41.0847 -74.2700 292° West 298 343 15,000 180 Level New York Center
08:01PM 41.0775 -74.3686 264° West 287 330 15,400 480 Climbing New York Center
08:02PM 41.1028 -74.4994 284° West 321 369 16,000 360 Climbing New York Center
08:03PM 41.1219 -74.6106 283° West 345 397 16,200 1,320 Climbing New York Center
08:04PM 41.1592 -74.7478 290° West 355 409 18,700 2,700 Climbing New York Center
08:05PM 41.2036 -74.8469 301° West 355 409 21,600 2,700 Climbing New York Center
08:06PM 41.2536 -74.9658 299° West 361 415 24,100 2,400 Climbing New York Center
08:07PM 41.3039 -75.0794 301° West 366 421 26,500 2,280 Climbing New York Center
08:08PM 41.3536 -75.1958 300° West 366 421 28,800 1,860 Climbing New York Center
08:09PM 41.4017 -75.3042 301° West 366 421 30,200 1,260 Climbing New York Center
08:10PM 41.4511 -75.4208 300° West 366 421 31,300 780 Climbing New York Center
08:11PM 41.4942 -75.5486 294° West 366 421 31,800 480 Climbing New York Center
08:12PM 41.5403 -75.6903 294° West 371 427 32,300 900 Climbing New York Center
08:13PM 41.5725 -75.8147 289° West 384 442 33,600 1,380 Climbing New York Center
08:14PM 41.6086 -75.9478 290° West 384 442 35,100 1,260 Climbing New York Center
08:15PM 41.6464 -76.0814 291° West 384 442 36,100 840 Climbing New York Center
08:16PM 41.6861 -76.2150 292° West 384 442 36,900 660 Climbing New York Center
08:17PM 41.7217 -76.3486 290° West 384 442 37,500 540 Climbing New York Center
08:18PM 41.7608 -76.4881 291° West 389 448 38,000 240 Climbing New York Center
08:19PM 41.8017 -76.6333 291° West 389 448 38,000  Level New York Center
08:20PM 41.8386 -76.7675 290° West 389 448 38,000 -360 Level New York Center
08:21PM 41.8753 -76.9047 290° West 394 453 37,300 -1,140 Descending New York Center
08:22PM 41.9164 -77.0614 289° West 392 451 35,600 -1,620 Descending Cleveland Center
08:23PM 41.9492 -77.1797 290° West 364 419 33,800 -1,680 Descending Cleveland Center
08:24PM 41.9839 -77.3008 291° West 352 405 32,300 -900 Descending Cleveland Center
08:25PM 42.0167 -77.4247 290° West 352 405 32,000 -180 Descending Cleveland Center
08:26PM 42.0472 -77.5519 288° West 352 405 32,000  Level Cleveland Center
08:27PM 42.0839 -77.6789 291° West 358 412 32,000  Level Cleveland Center
08:28PM 42.1161 -77.8064 289° West 358 412 32,000  Level Cleveland Center
08:29PM 42.1503 -77.9308 290° West 358 412 32,000  Level Cleveland Center
08:30PM 42.1825 -78.0611 288° West 358 412 32,000  Level Cleveland Center
08:31PM 42.2164 -78.1861 290° West 358 412 32,000  Level Cleveland Center
08:32PM 42.2483 -78.3167 288° West 358 412 32,000  Level Cleveland Center
08:33PM 42.2819 -78.4447 290° West 363 418 32,000  Level Cleveland Center
08:34PM 42.3156 -78.5756 289° West 363 418 32,000  Level Cleveland Center
08:35PM 42.3492 -78.7036 290° West 363 418 32,000  Level Cleveland Center
08:36PM 42.3822 -78.8292 290° West 363 418 32,000  Level Cleveland Center
08:37PM 42.4114 -78.9606 287° West 363 418 32,000  Level Cleveland Center
08:38PM 42.4442 -79.0892 289° West 363 418 32,000  Level Cleveland Center
08:39PM 42.4792 -79.2206 290° West 363 418 32,000  Level Cleveland Center
08:40PM 42.4953 -79.3528 279° West 358 412 32,000  Level Cleveland Center
08:41PM 42.5008 -79.4933 273° West 358 412 32,000  Level Cleveland Center
08:42PM 42.5106 -79.6283 276° West 364 419 32,000  Level Cleveland Center
08:43PM 42.5178 -79.7692 274° West 369 425 32,000  Level Cleveland Center
08:44PM 42.5228 -79.9042 273° West 369 425 32,000  Level Cleveland Center
08:45PM 42.5256 -80.0422 272° West 369 425 32,000  Level Cleveland Center
08:46PM 42.5325 -80.1661 274° West 364 419 32,000  Level Cleveland Center
08:47PM 42.5369 -80.3042 273° West 364 419 32,000  Level Cleveland Center
08:48PM 42.5436 -80.4394 274° West 364 419 32,000  Level Cleveland Center
08:49PM 42.5478 -80.5803 272° West 369 425 32,000  Level Cleveland Center
08:50PM 42.5539 -80.7156 274° West 361 415 32,000  Level Cleveland Center
08:51PM 42.5600 -80.8567 273° West 366 421 32,000  Level Cleveland Center
08:52PM 42.5658 -80.9919 273° West 366 421 32,000  Level Cleveland Center
08:53PM 42.5694 -81.1300 272° West 366 421 32,000  Level Cleveland Center
08:54PM 42.5728 -81.2825 272° West 366 421 32,000  Level Cleveland Center
08:55PM 42.5781 -81.4233 273° West 371 427 32,000  Level Cleveland Center
08:56PM 42.6000 -81.5533 283° West 365 420 32,000  Level Cleveland Center
08:57PM 42.6217 -81.6864 283° West 365 420 32,000  Level Cleveland Center
08:58PM 42.6433 -81.8025 284° West 371 427 32,000  Level Cleveland Center
08:59PM 42.6669 -81.9414 283° West 371 427 32,000  Level Cleveland Center
09:00PM 42.6903 -82.0747 283° West 371 427 32,000  Level Cleveland Center
09:01PM 42.7133 -82.2108 283° West 371 427 32,000  Level Cleveland Center
09:02PM 42.7319 -82.3556 280° West 376 433 32,000  Level Cleveland Center
09:03PM 42.7444 -82.4944 277° West 376 433 32,000  Level Cleveland Center
09:04PM 42.7544 -82.6361 276° West 376 433 32,000  Level Cleveland Center
09:05PM 42.7644 -82.7778 276° West 376 433 32,000  Level Cleveland Center
09:06PM 42.7742 -82.9194 275° West 381 438 32,000  Level Cleveland Center
09:07PM 42.7858 -83.0614 276° West 381 438 32,000  Level Cleveland Center
09:08PM 42.7953 -83.2006 275° West 381 438 32,000  Level Cleveland Center
09:09PM 42.8044 -83.3425 275° West 381 438 32,000  Level Cleveland Center
09:10PM 42.8156 -83.4844 276° West 381 438 32,000  Level Cleveland Center
09:11PM 42.8244 -83.6236 275° West 381 438 32,000  Level Cleveland Center
09:12PM 42.8331 -83.7683 275° West 381 438 32,000  Level Cleveland Center
09:13PM 42.8417 -83.9075 275° West 381 438 32,000  Level Cleveland Center
09:14PM 42.8519 -84.0525 276° West 381 438 32,000  Level Cleveland Center
09:15PM 42.8600 -84.1919 275° West 386 444 32,000  Level Cleveland Center
09:17PM 42.8750 -84.4189 275° West 377 434 32,000  Level Chicago Center
09:18PM 42.8831 -84.5611 274° West 378 435 32,000  Level Chicago Center
09:19PM 42.8711 -84.7000 263° West 371 427 32,000  Level Chicago Center
09:20PM 42.8575 -84.8400 262° West 373 429 32,000  Level Chicago Center
09:21PM 42.8433 -84.9800 262° West 374 430 32,000  Level Chicago Center
09:22PM 42.8253 -85.1458 262° West 369 425 32,000  Level Chicago Center
09:23PM 42.8100 -85.2844 262° West 370 426 32,000  Level Chicago Center
09:24PM 42.7947 -85.4244 262° West 373 429 32,000 -840 Level Chicago Center
09:25PM 42.7758 -85.5636 260° West 374 430 30,300 -1,800 Descending Chicago Center
09:26PM 42.7503 -85.6961 255° West 366 421 28,300 -1,920 Descending Chicago Center
09:27PM 42.7272 -85.8278 257° West 358 412 26,400 -1,800 Descending Chicago Center
09:28PM 42.7050 -85.9547 257° West 349 402 24,600 -1,800 Descending Chicago Center
09:29PM 42.6811 -86.0789 255° West 341 392 22,800 -1,860 Descending Chicago Center
09:30PM 42.6556 -86.2214 256° West 326 375 20,800 -1,800 Descending Chicago Center
09:31PM 42.6336 -86.3333 255° West 310 357 19,200 -1,440 Descending Chicago Center
09:32PM 42.6144 -86.4408 256° West 297 342 17,900 -1,260 Descending Chicago Center
09:33PM 42.5936 -86.5461 255° West 292 336 16,700 -1,140 Descending Chicago Center
09:34PM 42.5736 -86.6514 256° West 288 331 15,600 -1,260 Descending Chicago Center
09:35PM 42.5533 -86.7578 256° West 291 335 14,200 -1,260 Descending Chicago Center
09:36PM 42.5231 -86.8594 248° West 290 334 13,000 -1,320 Descending Chicago Center
09:37PM 42.4908 -86.9839 251° West 291 335 11,500 -1,380 Descending Chicago Center
09:38PM 42.4633 -87.0831 249° West 284 327 10,200 -840 Descending Chicago Center
09:39PM 42.4403 -87.1683 250° West 242 278 9,800 -540 Descending Chicago Center
09:40PM 42.4206 -87.2381 249° West 205 236 9,200 -1,080 Descending Chicago Center
09:41PM 42.4006 -87.3097 249° West 204 235 7,700 -1,320 Descending Chicago Center
09:42PM 42.3772 -87.3975 250° West 212 244 6,600 -840 Descending Chicago Center
09:44PM 42.3567 -87.4672 248° West 200 230 6,000 -300 Descending Chicago Center
09:45PM 42.3358 -87.5253 244° Southwest 178 205 6,000  Level Chicago Center
09:46PM 42.2875 -87.5181 174° South 183 211 6,000  Level Chicago Center
09:47PM 42.2367 -87.5072 171° South 184 212 6,000 -480 Level Chicago Center
09:48PM 42.1861 -87.4975 172° South 184 212 5,100 -1,020 Descending Chicago Center
09:49PM 42.1306 -87.4600 153° Southeast 195 224 4,000 -540 Descending Chicago Center
09:50PM 42.0833 -87.4000 137° Southeast 206 237 4,000  Level Chicago TRACON
09:51PM 42.0333 -87.3833 166° South 199 229 4,000  Level Chicago TRACON
09:52PM 41.9833 -87.3833 180° South 194 223 4,000  Level Chicago TRACON
09:53PM 41.9833 -87.4333 270° West 162 186 4,000  Level Chicago TRACON
09:54PM 41.9833 -87.5000 270° West 168 193 4,000  Level Chicago TRACON
09:55PM 41.9833 -87.5667 270° West 168 193 4,000  Level Chicago TRACON
09:56PM 41.9833 -87.6167 270° West 168 193 4,000 -120 Level Chicago TRACON
09:57PM 41.9833 -87.6833 270° West 169 194 3,800 -240 Descending Chicago TRACON